• Join FlightAware (Why Join?)
  • Login
  • US Flag 
10:24AM EST


 

Airport Tracker/Info


-or-


 

Live Flight TrackerFlight Track Log ✈ SWA1377 ✈ 17-Apr-2013 ✈ KBUF - KBWI

Flight Track Log - Related Links

Times and Time Zones

All times are in EDT time to prevent confusion due to time zone crossing. See the SWA1377 flight status page for this flight to view local times or setup timezone preferences in your user account.

Time Position Orientation Groundspeed Altitude Reporting Facility
EDT Latitude Longitude Course Direction KTS MPH feet Rate Location/Type
12:25PM 42.9333 -78.6667 99° East 215 247 4,600  Level Buffalo TRACON
12:27PM 42.8339 -78.6522 174° South 284 327 10,300 3,720 Climbing Cleveland Center
12:29PM 42.6358 -78.6472 179° South 347 399 17,800 3,600 Climbing Cleveland Center
12:30PM 42.5294 -78.6419 178° South 375 432 21,200 2,580 Climbing Cleveland Center
12:31PM 42.4208 -78.6311 176° South 388 447 23,000 1,860 Climbing Cleveland Center
12:32PM 42.3253 -78.5386 144° Southeast 387 445 25,000 960 Climbing Cleveland Center
12:33PM 42.2339 -78.4378 141° Southeast 409 471 25,000  Level Cleveland Center
12:34PM 42.1339 -78.3236 140° Southeast 423 487 25,000  Level Cleveland Center
12:35PM 42.0400 -78.2206 141° Southeast 428 493 25,000  Level Cleveland Center
12:36PM 41.9567 -78.1317 142° Southeast 428 493 25,000  Level Cleveland Center
12:37PM 41.8542 -78.0183 141° Southeast 435 501 25,000  Level Cleveland Center
12:37PM 41.8172 -77.9794 142° Southeast 440 506 25,000  Level New York Center
12:38PM 41.7211 -77.8772 142° Southeast 413 475 25,000  Level New York Center
12:39PM 41.6294 -77.7758 140° Southeast 423 487 25,000  Level New York Center
12:40PM 41.5372 -77.6747 141° Southeast 423 487 25,000 -240 Level New York Center
12:41PM 41.4450 -77.5767 141° Southeast 423 487 24,600 -660 Descending New York Center
12:42PM 41.3508 -77.4761 141° Southeast 423 487 23,700 -960 Descending New York Center
12:43PM 41.2425 -77.3631 142° Southeast 436 502 22,800 -900 Descending New York Center
12:44PM 41.1442 -77.2597 142° Southeast 444 511 22,000 -900 Descending New York Center
12:45PM 41.0494 -77.1600 142° Southeast 449 517 21,100 -900 Descending New York Center
12:46PM 40.9547 -77.0603 141° Southeast 449 517 20,300 -840 Descending New York Center
12:47PM 40.8619 -76.9614 141° Southeast 438 504 19,400 -900 Descending New York Center
12:48PM 40.7711 -76.8653 141° Southeast 430 495 18,500 -720 Descending New York Center
12:49PM 40.6889 -76.7622 136° Southeast 414 476 18,000 -720 Descending New York Center
12:50PM 40.6042 -76.6644 139° Southeast 414 476 17,200 -900 Descending New York Center
12:51PM 40.5303 -76.5572 132° Southeast 409 471 16,300 -900 Descending New York Center
12:52PM 40.4672 -76.4400 125° Southeast 398 458 15,500 -660 Descending New York Center
12:53PM 40.4097 -76.3344 126° Southeast 398 458 15,100 -240 Descending New York Center
12:54PM 40.3072 -76.2961 164° South 343 395 15,100  Level New York Center
12:55PM 40.2122 -76.3214 191° South 326 375 15,100 -60 Level New York Center
12:56PM 40.1147 -76.3542 194° South 340 391 15,000 -780 Descending New York Center
12:58PM 39.9333 -76.4167 195° South 352 405 12,900 -1,020 Descending Potomac TRACON
12:59PM 39.8333 -76.4500 194° South 345 397 12,000 -1,500 Descending Potomac TRACON
01:00PM 39.7500 -76.4500 180° South 347 399 10,100 -1,500 Descending Potomac TRACON
01:01PM 39.6500 -76.4333 173° South 306 352 9,000 -1,320 Descending Potomac TRACON
01:02PM 39.5833 -76.4333 180° South 301 346 7,500 -1,560 Descending Potomac TRACON
01:03PM 39.4833 -76.4167 173° South 294 338 5,900 -1,320 Descending Potomac TRACON
01:04PM 39.4167 -76.4167 180° South 269 310 4,800 -1,020 Descending Potomac TRACON
01:05PM 39.3500 -76.4167 180° South 254 292 4,000 -420 Descending Potomac TRACON
01:06PM 39.2667 -76.4000 171° South 263 303 4,000 -540 Level Potomac TRACON
01:07PM 39.2000 -76.4333 201° Southwest 262 302 3,000 -540 Descending Potomac TRACON
01:08PM 39.1500 -76.4667 207° Southwest 228 262 3,000  Level Potomac TRACON